sensor_id;sensor_type;location;lat;lon;timestamp;P1;durP1;ratioP1;P2;durP2;ratioP2
22634;SDS011;11484;50.858;4.384;2023-03-23T00:01:06;6.13;;;3.50;;
22634;SDS011;11484;50.858;4.384;2023-03-23T00:03:35;7.50;;;3.90;;
22634;SDS011;11484;50.858;4.384;2023-03-23T00:06:01;6.00;;;3.78;;
22634;SDS011;11484;50.858;4.384;2023-03-23T00:08:35;4.60;;;2.70;;
22634;SDS011;11484;50.858;4.384;2023-03-23T00:11:13;4.97;;;2.90;;
22634;SDS011;11484;50.858;4.384;2023-03-23T00:13:47;6.93;;;3.03;;
22634;SDS011;11484;50.858;4.384;2023-03-23T00:16:16;4.47;;;3.13;;
22634;SDS011;11484;50.858;4.384;2023-03-23T00:18:47;6.45;;;3.05;;
22634;SDS011;11484;50.858;4.384;2023-03-23T00:21:17;5.07;;;3.20;;
22634;SDS011;11484;50.858;4.384;2023-03-23T00:23:50;4.28;;;2.78;;
22634;SDS011;11484;50.858;4.384;2023-03-23T00:26:16;3.00;;;2.50;;
22634;SDS011;11484;50.858;4.384;2023-03-23T00:28:43;5.25;;;3.05;;
22634;SDS011;11484;50.858;4.384;2023-03-23T00:31:11;3.95;;;2.47;;
22634;SDS011;11484;50.858;4.384;2023-03-23T00:33:37;5.32;;;3.13;;
22634;SDS011;11484;50.858;4.384;2023-03-23T00:36:05;5.07;;;2.83;;
22634;SDS011;11484;50.858;4.384;2023-03-23T00:38:39;3.63;;;2.42;;
22634;SDS011;11484;50.858;4.384;2023-03-23T00:41:07;3.80;;;2.63;;
22634;SDS011;11484;50.858;4.384;2023-03-23T00:43:32;4.28;;;2.50;;
22634;SDS011;11484;50.858;4.384;2023-03-23T00:46:01;5.32;;;3.25;;
22634;SDS011;11484;50.858;4.384;2023-03-23T00:48:33;3.75;;;2.55;;
22634;SDS011;11484;50.858;4.384;2023-03-23T00:51:00;6.07;;;2.80;;
22634;SDS011;11484;50.858;4.384;2023-03-23T00:53:26;4.00;;;2.67;;
22634;SDS011;11484;50.858;4.384;2023-03-23T00:55:52;5.35;;;2.75;;
22634;SDS011;11484;50.858;4.384;2023-03-23T00:58:17;3.90;;;2.47;;
22634;SDS011;11484;50.858;4.384;2023-03-23T01:00:43;5.85;;;2.47;;
22634;SDS011;11484;50.858;4.384;2023-03-23T01:03:09;3.95;;;2.67;;
22634;SDS011;11484;50.858;4.384;2023-03-23T01:05:43;4.28;;;2.38;;
22634;SDS011;11484;50.858;4.384;2023-03-23T01:08:11;3.35;;;2.65;;
22634;SDS011;11484;50.858;4.384;2023-03-23T01:10:39;4.32;;;2.67;;
22634;SDS011;11484;50.858;4.384;2023-03-23T01:13:06;3.15;;;2.40;;
22634;SDS011;11484;50.858;4.384;2023-03-23T01:15:32;5.93;;;2.97;;
22634;SDS011;11484;50.858;4.384;2023-03-23T01:17:58;4.40;;;2.75;;
22634;SDS011;11484;50.858;4.384;2023-03-23T01:20:24;4.03;;;2.53;;
22634;SDS011;11484;50.858;4.384;2023-03-23T01:22:51;3.60;;;2.80;;
22634;SDS011;11484;50.858;4.384;2023-03-23T01:25:18;4.55;;;3.20;;
22634;SDS011;11484;50.858;4.384;2023-03-23T01:27:44;4.25;;;2.63;;
22634;SDS011;11484;50.858;4.384;2023-03-23T01:30:11;5.35;;;2.72;;
22634;SDS011;11484;50.858;4.384;2023-03-23T01:32:37;4.00;;;2.60;;
22634;SDS011;11484;50.858;4.384;2023-03-23T01:35:03;8.85;;;2.88;;
22634;SDS011;11484;50.858;4.384;2023-03-23T01:37:30;4.50;;;2.70;;
22634;SDS011;11484;50.858;4.384;2023-03-23T01:39:56;4.65;;;2.40;;
22634;SDS011;11484;50.858;4.384;2023-03-23T01:42:23;5.07;;;2.60;;
22634;SDS011;11484;50.858;4.384;2023-03-23T01:47:43;3.88;;;2.58;;
22634;SDS011;11484;50.858;4.384;2023-03-23T01:50:08;4.65;;;2.70;;
22634;SDS011;11484;50.858;4.384;2023-03-23T01:52:35;3.88;;;2.70;;
22634;SDS011;11484;50.858;4.384;2023-03-23T01:55:01;3.30;;;2.33;;
22634;SDS011;11484;50.858;4.384;2023-03-23T01:57:28;3.83;;;2.40;;
22634;SDS011;11484;50.858;4.384;2023-03-23T01:59:55;3.58;;;2.50;;
22634;SDS011;11484;50.858;4.384;2023-03-23T02:02:24;3.35;;;2.60;;
22634;SDS011;11484;50.858;4.384;2023-03-23T02:04:51;4.55;;;2.83;;
22634;SDS011;11484;50.858;4.384;2023-03-23T02:07:24;3.25;;;2.20;;
22634;SDS011;11484;50.858;4.384;2023-03-23T02:09:51;4.10;;;2.65;;
22634;SDS011;11484;50.858;4.384;2023-03-23T02:12:17;3.30;;;2.20;;
22634;SDS011;11484;50.858;4.384;2023-03-23T02:14:43;4.10;;;2.20;;
22634;SDS011;11484;50.858;4.384;2023-03-23T02:17:17;4.03;;;2.33;;
22634;SDS011;11484;50.858;4.384;2023-03-23T02:31:11;3.47;;;1.63;;
22634;SDS011;11484;50.858;4.384;2023-03-23T02:41:28;1.75;;;1.10;;
22634;SDS011;11484;50.858;4.384;2023-03-23T02:43:56;3.05;;;1.27;;
22634;SDS011;11484;50.858;4.384;2023-03-23T02:46:23;3.50;;;1.23;;
22634;SDS011;11484;50.858;4.384;2023-03-23T02:48:50;2.45;;;1.20;;
22634;SDS011;11484;50.858;4.384;2023-03-23T02:53:47;3.13;;;1.50;;
22634;SDS011;11484;50.858;4.384;2023-03-23T02:56:16;1.98;;;1.10;;
22634;SDS011;11484;50.858;4.384;2023-03-23T02:58:42;1.50;;;0.98;;
22634;SDS011;11484;50.858;4.384;2023-03-23T03:03:57;1.67;;;1.17;;
22634;SDS011;11484;50.858;4.384;2023-03-23T03:09:36;2.67;;;1.00;;
22634;SDS011;11484;50.858;4.384;2023-03-23T03:12:08;2.88;;;1.05;;
22634;SDS011;11484;50.858;4.384;2023-03-23T03:14:41;2.65;;;0.90;;
22634;SDS011;11484;50.858;4.384;2023-03-23T03:19:42;1.90;;;0.90;;
22634;SDS011;11484;50.858;4.384;2023-03-23T03:22:12;2.45;;;1.00;;
22634;SDS011;11484;50.858;4.384;2023-03-23T03:24:39;2.67;;;0.90;;
22634;SDS011;11484;50.858;4.384;2023-03-23T03:27:10;4.93;;;1.33;;
22634;SDS011;11484;50.858;4.384;2023-03-23T03:29:42;2.85;;;0.70;;
22634;SDS011;11484;50.858;4.384;2023-03-23T03:32:14;4.00;;;1.35;;
22634;SDS011;11484;50.858;4.384;2023-03-23T03:34:45;1.02;;;0.73;;
22634;SDS011;11484;50.858;4.384;2023-03-23T03:37:12;2.00;;;0.95;;
22634;SDS011;11484;50.858;4.384;2023-03-23T03:39:40;1.85;;;0.90;;
22634;SDS011;11484;50.858;4.384;2023-03-23T03:42:05;1.98;;;0.70;;
22634;SDS011;11484;50.858;4.384;2023-03-23T03:44:32;2.20;;;0.88;;
22634;SDS011;11484;50.858;4.384;2023-03-23T03:46:58;1.63;;;0.90;;
22634;SDS011;11484;50.858;4.384;2023-03-23T03:49:24;3.10;;;0.98;;
22634;SDS011;11484;50.858;4.384;2023-03-23T03:51:50;3.15;;;1.00;;
22634;SDS011;11484;50.858;4.384;2023-03-23T03:54:16;2.28;;;0.80;;
22634;SDS011;11484;50.858;4.384;2023-03-23T03:56:43;3.38;;;0.98;;
22634;SDS011;11484;50.858;4.384;2023-03-23T03:59:11;3.45;;;1.25;;
22634;SDS011;11484;50.858;4.384;2023-03-23T04:01:37;3.30;;;1.08;;
22634;SDS011;11484;50.858;4.384;2023-03-23T04:04:04;2.53;;;1.00;;
22634;SDS011;11484;50.858;4.384;2023-03-23T04:06:32;1.80;;;0.77;;
22634;SDS011;11484;50.858;4.384;2023-03-23T04:09:01;2.75;;;1.00;;
22634;SDS011;11484;50.858;4.384;2023-03-23T04:11:30;2.88;;;1.02;;
22634;SDS011;11484;50.858;4.384;2023-03-23T04:13:56;4.90;;;1.00;;
22634;SDS011;11484;50.858;4.384;2023-03-23T04:16:22;3.47;;;1.05;;
22634;SDS011;11484;50.858;4.384;2023-03-23T04:18:48;5.00;;;1.10;;
22634;SDS011;11484;50.858;4.384;2023-03-23T04:21:14;4.45;;;0.95;;
22634;SDS011;11484;50.858;4.384;2023-03-23T04:23:41;5.32;;;1.23;;
22634;SDS011;11484;50.858;4.384;2023-03-23T04:26:07;3.38;;;1.08;;
22634;SDS011;11484;50.858;4.384;2023-03-23T04:28:33;3.80;;;1.10;;
22634;SDS011;11484;50.858;4.384;2023-03-23T04:30:59;3.85;;;1.02;;
22634;SDS011;11484;50.858;4.384;2023-03-23T04:33:26;4.90;;;1.05;;
22634;SDS011;11484;50.858;4.384;2023-03-23T04:35:54;3.92;;;1.38;;
22634;SDS011;11484;50.858;4.384;2023-03-23T04:38:21;3.08;;;1.23;;
22634;SDS011;11484;50.858;4.384;2023-03-23T04:40:50;3.20;;;1.15;;
22634;SDS011;11484;50.858;4.384;2023-03-23T04:43:17;4.35;;;1.00;;
22634;SDS011;11484;50.858;4.384;2023-03-23T04:45:46;4.07;;;1.48;;
22634;SDS011;11484;50.858;4.384;2023-03-23T04:50:42;2.22;;;0.77;;
22634;SDS011;11484;50.858;4.384;2023-03-23T04:53:08;4.70;;;1.65;;
22634;SDS011;11484;50.858;4.384;2023-03-23T04:55:35;4.95;;;1.30;;
22634;SDS011;11484;50.858;4.384;2023-03-23T04:58:04;4.97;;;1.10;;
22634;SDS011;11484;50.858;4.384;2023-03-23T05:00:31;2.53;;;0.87;;
22634;SDS011;11484;50.858;4.384;2023-03-23T05:03:01;3.08;;;0.90;;
22634;SDS011;11484;50.858;4.384;2023-03-23T05:05:27;4.18;;;1.20;;
22634;SDS011;11484;50.858;4.384;2023-03-23T05:07:55;3.20;;;0.80;;
22634;SDS011;11484;50.858;4.384;2023-03-23T05:10:22;5.75;;;1.00;;
22634;SDS011;11484;50.858;4.384;2023-03-23T05:12:48;1.83;;;0.80;;
22634;SDS011;11484;50.858;4.384;2023-03-23T05:15:15;3.58;;;0.90;;
22634;SDS011;11484;50.858;4.384;2023-03-23T05:17:41;5.78;;;1.10;;
22634;SDS011;11484;50.858;4.384;2023-03-23T05:20:12;2.40;;;0.90;;
22634;SDS011;11484;50.858;4.384;2023-03-23T05:22:40;7.35;;;1.20;;
22634;SDS011;11484;50.858;4.384;2023-03-23T05:25:09;3.93;;;1.03;;
22634;SDS011;11484;50.858;4.384;2023-03-23T05:27:36;7.60;;;1.30;;
22634;SDS011;11484;50.858;4.384;2023-03-23T05:30:03;2.95;;;1.30;;
22634;SDS011;11484;50.858;4.384;2023-03-23T05:32:30;3.22;;;1.02;;
22634;SDS011;11484;50.858;4.384;2023-03-23T05:34:56;4.97;;;1.10;;
22634;SDS011;11484;50.858;4.384;2023-03-23T05:37:23;4.93;;;1.50;;
22634;SDS011;11484;50.858;4.384;2023-03-23T05:39:51;2.95;;;1.27;;
22634;SDS011;11484;50.858;4.384;2023-03-23T05:42:21;2.60;;;0.90;;
22634;SDS011;11484;50.858;4.384;2023-03-23T05:44:47;2.65;;;1.05;;
22634;SDS011;11484;50.858;4.384;2023-03-23T05:47:14;3.60;;;1.58;;
22634;SDS011;11484;50.858;4.384;2023-03-23T05:49:40;2.20;;;1.08;;
22634;SDS011;11484;50.858;4.384;2023-03-23T05:52:09;4.28;;;1.20;;
22634;SDS011;11484;50.858;4.384;2023-03-23T05:54:35;4.50;;;1.30;;
22634;SDS011;11484;50.858;4.384;2023-03-23T05:57:01;3.00;;;1.23;;
22634;SDS011;11484;50.858;4.384;2023-03-23T05:59:28;5.68;;;1.42;;
22634;SDS011;11484;50.858;4.384;2023-03-23T06:01:53;2.30;;;1.27;;
22634;SDS011;11484;50.858;4.384;2023-03-23T06:04:20;2.53;;;1.08;;
22634;SDS011;11484;50.858;4.384;2023-03-23T06:06:49;1.70;;;0.88;;
22634;SDS011;11484;50.858;4.384;2023-03-23T06:09:17;3.05;;;1.17;;
22634;SDS011;11484;50.858;4.384;2023-03-23T06:11:43;2.25;;;1.10;;
22634;SDS011;11484;50.858;4.384;2023-03-23T06:14:09;7.43;;;2.10;;
22634;SDS011;11484;50.858;4.384;2023-03-23T06:16:35;4.72;;;1.65;;
22634;SDS011;11484;50.858;4.384;2023-03-23T06:19:01;2.67;;;1.10;;
22634;SDS011;11484;50.858;4.384;2023-03-23T06:21:28;2.45;;;1.15;;
22634;SDS011;11484;50.858;4.384;2023-03-23T06:23:55;3.97;;;1.35;;
22634;SDS011;11484;50.858;4.384;2023-03-23T06:26:21;3.42;;;1.17;;
22634;SDS011;11484;50.858;4.384;2023-03-23T06:28:56;4.32;;;1.13;;
22634;SDS011;11484;50.858;4.384;2023-03-23T06:31:22;3.63;;;1.10;;
22634;SDS011;11484;50.858;4.384;2023-03-23T06:33:49;4.45;;;1.20;;
22634;SDS011;11484;50.858;4.384;2023-03-23T06:36:15;3.17;;;1.20;;
22634;SDS011;11484;50.858;4.384;2023-03-23T06:38:41;6.68;;;1.40;;
22634;SDS011;11484;50.858;4.384;2023-03-23T06:41:07;2.67;;;1.77;;
22634;SDS011;11484;50.858;4.384;2023-03-23T06:43:33;3.20;;;1.20;;
22634;SDS011;11484;50.858;4.384;2023-03-23T06:46:02;4.50;;;1.45;;
22634;SDS011;11484;50.858;4.384;2023-03-23T06:48:28;4.88;;;1.20;;
22634;SDS011;11484;50.858;4.384;2023-03-23T06:50:55;2.70;;;1.10;;
22634;SDS011;11484;50.858;4.384;2023-03-23T06:53:21;3.13;;;1.10;;
22634;SDS011;11484;50.858;4.384;2023-03-23T06:55:46;5.95;;;1.35;;
22634;SDS011;11484;50.858;4.384;2023-03-23T06:58:12;4.28;;;1.50;;
22634;SDS011;11484;50.858;4.384;2023-03-23T07:00:41;4.55;;;1.55;;
22634;SDS011;11484;50.858;4.384;2023-03-23T07:03:06;4.97;;;1.50;;
22634;SDS011;11484;50.858;4.384;2023-03-23T07:05:33;3.15;;;1.17;;
22634;SDS011;11484;50.858;4.384;2023-03-23T07:08:00;4.35;;;2.05;;
22634;SDS011;11484;50.858;4.384;2023-03-23T07:10:28;4.03;;;1.00;;
22634;SDS011;11484;50.858;4.384;2023-03-23T07:12:54;4.85;;;0.80;;
22634;SDS011;11484;50.858;4.384;2023-03-23T07:15:20;3.15;;;0.80;;
22634;SDS011;11484;50.858;4.384;2023-03-23T07:17:46;2.38;;;0.85;;
22634;SDS011;11484;50.858;4.384;2023-03-23T07:20:12;2.55;;;0.80;;
22634;SDS011;11484;50.858;4.384;2023-03-23T07:22:39;2.17;;;0.60;;
22634;SDS011;11484;50.858;4.384;2023-03-23T07:25:05;1.17;;;0.50;;
22634;SDS011;11484;50.858;4.384;2023-03-23T07:27:32;1.73;;;0.75;;
22634;SDS011;11484;50.858;4.384;2023-03-23T07:29:58;3.45;;;1.02;;
22634;SDS011;11484;50.858;4.384;2023-03-23T07:32:24;2.97;;;0.82;;
22634;SDS011;11484;50.858;4.384;2023-03-23T07:34:50;3.30;;;1.25;;
22634;SDS011;11484;50.858;4.384;2023-03-23T07:37:16;3.63;;;0.90;;
22634;SDS011;11484;50.858;4.384;2023-03-23T07:39:43;2.35;;;0.68;;
22634;SDS011;11484;50.858;4.384;2023-03-23T07:42:09;2.55;;;0.80;;
22634;SDS011;11484;50.858;4.384;2023-03-23T07:44:35;2.63;;;0.80;;
22634;SDS011;11484;50.858;4.384;2023-03-23T07:47:01;1.73;;;1.13;;
22634;SDS011;11484;50.858;4.384;2023-03-23T07:49:27;2.10;;;0.98;;
22634;SDS011;11484;50.858;4.384;2023-03-23T07:51:53;4.25;;;1.20;;
22634;SDS011;11484;50.858;4.384;2023-03-23T07:54:18;2.72;;;1.60;;
22634;SDS011;11484;50.858;4.384;2023-03-23T07:56:44;5.13;;;1.30;;
22634;SDS011;11484;50.858;4.384;2023-03-23T07:59:10;3.60;;;1.20;;
22634;SDS011;11484;50.858;4.384;2023-03-23T08:01:37;3.95;;;1.30;;
22634;SDS011;11484;50.858;4.384;2023-03-23T08:04:04;2.53;;;1.38;;
22634;SDS011;11484;50.858;4.384;2023-03-23T08:06:34;5.05;;;1.30;;
22634;SDS011;11484;50.858;4.384;2023-03-23T08:09:00;3.50;;;1.60;;
22634;SDS011;11484;50.858;4.384;2023-03-23T08:11:31;5.75;;;1.15;;
22634;SDS011;11484;50.858;4.384;2023-03-23T08:13:57;4.80;;;1.58;;
22634;SDS011;11484;50.858;4.384;2023-03-23T08:16:23;3.00;;;0.80;;
22634;SDS011;11484;50.858;4.384;2023-03-23T08:18:49;3.95;;;1.20;;
22634;SDS011;11484;50.858;4.384;2023-03-23T08:21:15;4.03;;;0.75;;
22634;SDS011;11484;50.858;4.384;2023-03-23T08:23:40;2.00;;;0.90;;
22634;SDS011;11484;50.858;4.384;2023-03-23T08:26:07;1.73;;;0.68;;
22634;SDS011;11484;50.858;4.384;2023-03-23T08:28:34;1.80;;;0.80;;
22634;SDS011;11484;50.858;4.384;2023-03-23T08:31:00;2.58;;;0.80;;
22634;SDS011;11484;50.858;4.384;2023-03-23T08:33:32;2.30;;;0.70;;
22634;SDS011;11484;50.858;4.384;2023-03-23T08:35:58;3.58;;;0.70;;
22634;SDS011;11484;50.858;4.384;2023-03-23T08:38:26;2.38;;;0.82;;
22634;SDS011;11484;50.858;4.384;2023-03-23T08:40:57;3.13;;;0.90;;
22634;SDS011;11484;50.858;4.384;2023-03-23T08:43:27;2.35;;;0.80;;
22634;SDS011;11484;50.858;4.384;2023-03-23T08:45:53;1.38;;;0.75;;
22634;SDS011;11484;50.858;4.384;2023-03-23T08:48:19;3.20;;;1.20;;
22634;SDS011;11484;50.858;4.384;2023-03-23T08:50:46;2.38;;;0.85;;
22634;SDS011;11484;50.858;4.384;2023-03-23T08:53:12;6.25;;;1.63;;
22634;SDS011;11484;50.858;4.384;2023-03-23T08:55:37;4.22;;;1.10;;
22634;SDS011;11484;50.858;4.384;2023-03-23T08:58:04;5.80;;;1.40;;
22634;SDS011;11484;50.858;4.384;2023-03-23T09:00:31;1.40;;;0.80;;
22634;SDS011;11484;50.858;4.384;2023-03-23T09:02:57;2.08;;;0.85;;
22634;SDS011;11484;50.858;4.384;2023-03-23T09:05:25;4.13;;;0.98;;
22634;SDS011;11484;50.858;4.384;2023-03-23T09:07:54;2.72;;;0.82;;
22634;SDS011;11484;50.858;4.384;2023-03-23T09:10:24;5.03;;;0.95;;
22634;SDS011;11484;50.858;4.384;2023-03-23T09:12:51;2.45;;;0.82;;
22634;SDS011;11484;50.858;4.384;2023-03-23T09:15:18;4.30;;;1.10;;
22634;SDS011;11484;50.858;4.384;2023-03-23T09:17:46;2.30;;;0.90;;
22634;SDS011;11484;50.858;4.384;2023-03-23T09:20:14;1.90;;;1.08;;
22634;SDS011;11484;50.858;4.384;2023-03-23T09:22:41;2.85;;;1.00;;
22634;SDS011;11484;50.858;4.384;2023-03-23T09:25:09;2.33;;;1.23;;
22634;SDS011;11484;50.858;4.384;2023-03-23T09:27:36;2.67;;;0.90;;
22634;SDS011;11484;50.858;4.384;2023-03-23T09:30:04;2.03;;;0.80;;
22634;SDS011;11484;50.858;4.384;2023-03-23T09:32:32;2.15;;;0.85;;
22634;SDS011;11484;50.858;4.384;2023-03-23T09:35:00;5.38;;;3.63;;
22634;SDS011;11484;50.858;4.384;2023-03-23T09:37:28;4.75;;;1.83;;
22634;SDS011;11484;50.858;4.384;2023-03-23T09:39:54;2.85;;;0.73;;
22634;SDS011;11484;50.858;4.384;2023-03-23T09:44:53;3.35;;;1.10;;
22634;SDS011;11484;50.858;4.384;2023-03-23T09:47:42;3.85;;;1.10;;
22634;SDS011;11484;50.858;4.384;2023-03-23T09:50:29;2.53;;;1.00;;
22634;SDS011;11484;50.858;4.384;2023-03-23T09:52:59;2.15;;;1.27;;
22634;SDS011;11484;50.858;4.384;2023-03-23T09:55:30;2.40;;;1.23;;
22634;SDS011;11484;50.858;4.384;2023-03-23T10:00:41;1.98;;;0.65;;
22634;SDS011;11484;50.858;4.384;2023-03-23T10:03:19;2.05;;;1.02;;
22634;SDS011;11484;50.858;4.384;2023-03-23T10:05:53;1.95;;;0.90;;
22634;SDS011;11484;50.858;4.384;2023-03-23T10:08:27;1.70;;;1.30;;
22634;SDS011;11484;50.858;4.384;2023-03-23T10:13:47;1.77;;;1.15;;
22634;SDS011;11484;50.858;4.384;2023-03-23T10:16:19;2.10;;;1.10;;
22634;SDS011;11484;50.858;4.384;2023-03-23T10:19:10;3.90;;;1.17;;
22634;SDS011;11484;50.858;4.384;2023-03-23T10:21:47;2.58;;;0.95;;
22634;SDS011;11484;50.858;4.384;2023-03-23T10:27:30;6.45;;;1.30;;
22634;SDS011;11484;50.858;4.384;2023-03-23T10:30:31;2.35;;;1.20;;
22634;SDS011;11484;50.858;4.384;2023-03-23T10:36:07;3.83;;;1.33;;
22634;SDS011;11484;50.858;4.384;2023-03-23T10:38:42;2.50;;;1.30;;
22634;SDS011;11484;50.858;4.384;2023-03-23T10:41:13;4.80;;;1.40;;
22634;SDS011;11484;50.858;4.384;2023-03-23T10:43:41;2.30;;;1.25;;
22634;SDS011;11484;50.858;4.384;2023-03-23T10:49:02;2.80;;;1.40;;
22634;SDS011;11484;50.858;4.384;2023-03-23T10:51:37;4.22;;;1.40;;
22634;SDS011;11484;50.858;4.384;2023-03-23T10:54:08;4.60;;;1.50;;
22634;SDS011;11484;50.858;4.384;2023-03-23T10:56:39;4.43;;;1.67;;
22634;SDS011;11484;50.858;4.384;2023-03-23T10:59:26;5.18;;;1.55;;
22634;SDS011;11484;50.858;4.384;2023-03-23T11:01:57;4.88;;;1.48;;
22634;SDS011;11484;50.858;4.384;2023-03-23T11:04:27;4.68;;;1.80;;
22634;SDS011;11484;50.858;4.384;2023-03-23T11:06:58;3.83;;;1.50;;
22634;SDS011;11484;50.858;4.384;2023-03-23T11:09:34;3.08;;;1.70;;
22634;SDS011;11484;50.858;4.384;2023-03-23T11:12:01;4.90;;;1.67;;
22634;SDS011;11484;50.858;4.384;2023-03-23T11:14:32;2.28;;;1.30;;
22634;SDS011;11484;50.858;4.384;2023-03-23T11:17:05;5.38;;;1.60;;
22634;SDS011;11484;50.858;4.384;2023-03-23T11:19:45;5.88;;;2.00;;
22634;SDS011;11484;50.858;4.384;2023-03-23T11:22:20;2.97;;;1.40;;
22634;SDS011;11484;50.858;4.384;2023-03-23T11:24:54;5.35;;;1.85;;
22634;SDS011;11484;50.858;4.384;2023-03-23T11:27:23;2.47;;;1.35;;
22634;SDS011;11484;50.858;4.384;2023-03-23T11:29:51;3.47;;;1.42;;
22634;SDS011;11484;50.858;4.384;2023-03-23T11:32:19;4.82;;;1.73;;
22634;SDS011;11484;50.858;4.384;2023-03-23T11:37:24;6.18;;;1.50;;
22634;SDS011;11484;50.858;4.384;2023-03-23T11:40:19;2.63;;;1.25;;
22634;SDS011;11484;50.858;4.384;2023-03-23T11:45:39;4.50;;;1.40;;
22634;SDS011;11484;50.858;4.384;2023-03-23T11:51:02;4.75;;;1.63;;
22634;SDS011;11484;50.858;4.384;2023-03-23T11:58:50;3.30;;;1.27;;
22634;SDS011;11484;50.858;4.384;2023-03-23T12:01:24;6.45;;;1.50;;
22634;SDS011;11484;50.858;4.384;2023-03-23T12:12:14;3.45;;;1.50;;
22634;SDS011;11484;50.858;4.384;2023-03-23T12:14:50;3.13;;;1.10;;
22634;SDS011;11484;50.858;4.384;2023-03-23T12:17:43;3.25;;;1.23;;
22634;SDS011;11484;50.858;4.384;2023-03-23T12:28:26;3.85;;;1.52;;
22634;SDS011;11484;50.858;4.384;2023-03-23T12:31:03;4.78;;;1.58;;
22634;SDS011;11484;50.858;4.384;2023-03-23T12:42:21;4.68;;;1.38;;
22634;SDS011;11484;50.858;4.384;2023-03-23T12:45:05;7.60;;;1.75;;
22634;SDS011;11484;50.858;4.384;2023-03-23T12:50:31;4.55;;;1.00;;
22634;SDS011;11484;50.858;4.384;2023-03-23T12:55:43;5.50;;;1.83;;
22634;SDS011;11484;50.858;4.384;2023-03-23T13:00:49;6.70;;;2.35;;
22634;SDS011;11484;50.858;4.384;2023-03-23T13:03:49;4.57;;;1.70;;
22634;SDS011;11484;50.858;4.384;2023-03-23T13:06:36;5.03;;;2.10;;
22634;SDS011;11484;50.858;4.384;2023-03-23T13:09:22;2.75;;;1.42;;
22634;SDS011;11484;50.858;4.384;2023-03-23T13:11:55;3.28;;;1.10;;
22634;SDS011;11484;50.858;4.384;2023-03-23T13:17:22;4.85;;;1.60;;
22634;SDS011;11484;50.858;4.384;2023-03-23T13:22:42;5.63;;;1.55;;
22634;SDS011;11484;50.858;4.384;2023-03-23T13:25:13;4.57;;;1.70;;
22634;SDS011;11484;50.858;4.384;2023-03-23T13:27:44;4.30;;;1.48;;
22634;SDS011;11484;50.858;4.384;2023-03-23T13:30:21;4.25;;;1.48;;
22634;SDS011;11484;50.858;4.384;2023-03-23T13:32:50;3.92;;;1.70;;
22634;SDS011;11484;50.858;4.384;2023-03-23T13:35:18;5.72;;;1.30;;
22634;SDS011;11484;50.858;4.384;2023-03-23T13:37:51;4.20;;;1.38;;
22634;SDS011;11484;50.858;4.384;2023-03-23T13:42:52;5.63;;;1.60;;
22634;SDS011;11484;50.858;4.384;2023-03-23T13:45:35;4.22;;;1.42;;
22634;SDS011;11484;50.858;4.384;2023-03-23T13:50:44;5.35;;;1.50;;
22634;SDS011;11484;50.858;4.384;2023-03-23T13:56:17;6.10;;;1.40;;
22634;SDS011;11484;50.858;4.384;2023-03-23T13:58:49;5.40;;;2.03;;
22634;SDS011;11484;50.858;4.384;2023-03-23T14:01:29;3.72;;;1.30;;
22634;SDS011;11484;50.858;4.384;2023-03-23T14:03:58;4.43;;;1.48;;
22634;SDS011;11484;50.858;4.384;2023-03-23T14:06:25;5.30;;;1.50;;
22634;SDS011;11484;50.858;4.384;2023-03-23T14:09:03;4.68;;;1.40;;
22634;SDS011;11484;50.858;4.384;2023-03-23T14:11:45;5.57;;;1.50;;
22634;SDS011;11484;50.858;4.384;2023-03-23T14:14:24;4.22;;;1.50;;
22634;SDS011;11484;50.858;4.384;2023-03-23T14:16:53;6.10;;;1.50;;
22634;SDS011;11484;50.858;4.384;2023-03-23T14:19:51;4.07;;;1.40;;
22634;SDS011;11484;50.858;4.384;2023-03-23T14:22:33;8.03;;;1.50;;
22634;SDS011;11484;50.858;4.384;2023-03-23T14:25:14;6.07;;;1.92;;
22634;SDS011;11484;50.858;4.384;2023-03-23T14:27:41;6.68;;;1.45;;
22634;SDS011;11484;50.858;4.384;2023-03-23T14:30:12;4.82;;;1.70;;
22634;SDS011;11484;50.858;4.384;2023-03-23T14:32:40;8.60;;;1.77;;
22634;SDS011;11484;50.858;4.384;2023-03-23T14:35:07;6.82;;;2.05;;
22634;SDS011;11484;50.858;4.384;2023-03-23T14:37:43;7.93;;;1.83;;
22634;SDS011;11484;50.858;4.384;2023-03-23T14:40:14;5.22;;;1.67;;
22634;SDS011;11484;50.858;4.384;2023-03-23T14:42:42;5.05;;;1.50;;
22634;SDS011;11484;50.858;4.384;2023-03-23T14:45:14;4.32;;;1.60;;
22634;SDS011;11484;50.858;4.384;2023-03-23T14:47:44;5.55;;;1.98;;
22634;SDS011;11484;50.858;4.384;2023-03-23T14:50:39;7.75;;;1.50;;
22634;SDS011;11484;50.858;4.384;2023-03-23T14:55:50;4.85;;;1.60;;
22634;SDS011;11484;50.858;4.384;2023-03-23T14:58:21;2.45;;;1.10;;
22634;SDS011;11484;50.858;4.384;2023-03-23T15:03:28;4.68;;;1.38;;
22634;SDS011;11484;50.858;4.384;2023-03-23T15:06:01;3.97;;;1.40;;
22634;SDS011;11484;50.858;4.384;2023-03-23T15:08:35;5.22;;;1.40;;
22634;SDS011;11484;50.858;4.384;2023-03-23T15:13:50;12.07;;;2.22;;
22634;SDS011;11484;50.858;4.384;2023-03-23T15:16:29;6.63;;;1.77;;
22634;SDS011;11484;50.858;4.384;2023-03-23T15:21:28;6.15;;;2.10;;
22634;SDS011;11484;50.858;4.384;2023-03-23T15:23:56;11.57;;;2.35;;
22634;SDS011;11484;50.858;4.384;2023-03-23T15:26:33;7.40;;;2.58;;
22634;SDS011;11484;50.858;4.384;2023-03-23T15:31:47;8.00;;;2.85;;
22634;SDS011;11484;50.858;4.384;2023-03-23T15:34:33;8.70;;;2.63;;
22634;SDS011;11484;50.858;4.384;2023-03-23T15:37:26;5.60;;;1.45;;
22634;SDS011;11484;50.858;4.384;2023-03-23T15:39:53;5.57;;;2.05;;
22634;SDS011;11484;50.858;4.384;2023-03-23T15:42:28;4.18;;;1.80;;
22634;SDS011;11484;50.858;4.384;2023-03-23T15:47:51;5.25;;;2.03;;
22634;SDS011;11484;50.858;4.384;2023-03-23T15:50:18;5.93;;;2.10;;
22634;SDS011;11484;50.858;4.384;2023-03-23T15:52:45;6.72;;;1.77;;
22634;SDS011;11484;50.858;4.384;2023-03-23T15:55:35;6.47;;;4.07;;
22634;SDS011;11484;50.858;4.384;2023-03-23T15:58:04;5.55;;;2.05;;
22634;SDS011;11484;50.858;4.384;2023-03-23T16:00:36;5.03;;;2.17;;
22634;SDS011;11484;50.858;4.384;2023-03-23T16:03:06;6.63;;;1.92;;
22634;SDS011;11484;50.858;4.384;2023-03-23T16:05:36;7.13;;;1.90;;
22634;SDS011;11484;50.858;4.384;2023-03-23T16:08:02;8.48;;;2.28;;
22634;SDS011;11484;50.858;4.384;2023-03-23T16:10:28;10.05;;;1.98;;
22634;SDS011;11484;50.858;4.384;2023-03-23T16:12:54;8.65;;;1.83;;
22634;SDS011;11484;50.858;4.384;2023-03-23T16:15:20;4.95;;;3.22;;
22634;SDS011;11484;50.858;4.384;2023-03-23T16:17:46;3.95;;;1.40;;
22634;SDS011;11484;50.858;4.384;2023-03-23T16:22:42;3.92;;;1.98;;
22634;SDS011;11484;50.858;4.384;2023-03-23T16:25:08;6.68;;;1.75;;
22634;SDS011;11484;50.858;4.384;2023-03-23T16:27:35;10.27;;;2.35;;
22634;SDS011;11484;50.858;4.384;2023-03-23T16:30:09;5.63;;;1.52;;
22634;SDS011;11484;50.858;4.384;2023-03-23T16:32:46;6.75;;;2.33;;
22634;SDS011;11484;50.858;4.384;2023-03-23T16:35:13;11.15;;;2.63;;
22634;SDS011;11484;50.858;4.384;2023-03-23T16:37:43;6.43;;;2.70;;
22634;SDS011;11484;50.858;4.384;2023-03-23T16:40:13;7.50;;;2.45;;
22634;SDS011;11484;50.858;4.384;2023-03-23T16:42:40;8.43;;;1.83;;
22634;SDS011;11484;50.858;4.384;2023-03-23T16:45:06;6.80;;;2.35;;
22634;SDS011;11484;50.858;4.384;2023-03-23T16:47:33;13.15;;;3.45;;
22634;SDS011;11484;50.858;4.384;2023-03-23T16:49:59;7.22;;;2.33;;
22634;SDS011;11484;50.858;4.384;2023-03-23T16:52:25;5.75;;;1.67;;
22634;SDS011;11484;50.858;4.384;2023-03-23T16:54:51;5.15;;;1.60;;
22634;SDS011;11484;50.858;4.384;2023-03-23T16:57:17;5.35;;;1.88;;
22634;SDS011;11484;50.858;4.384;2023-03-23T16:59:42;6.22;;;2.17;;
22634;SDS011;11484;50.858;4.384;2023-03-23T17:02:09;6.72;;;1.80;;
22634;SDS011;11484;50.858;4.384;2023-03-23T17:04:36;3.92;;;1.20;;
22634;SDS011;11484;50.858;4.384;2023-03-23T17:07:06;5.45;;;1.50;;
22634;SDS011;11484;50.858;4.384;2023-03-23T17:09:32;5.30;;;1.67;;
22634;SDS011;11484;50.858;4.384;2023-03-23T17:11:57;4.43;;;1.40;;
22634;SDS011;11484;50.858;4.384;2023-03-23T17:14:23;5.10;;;1.95;;